createdAt,value
2023-04-26T00:01:05.201Z,97849.09
2023-04-26T00:02:08.343Z,97851.78
2023-04-26T00:03:13.415Z,97849.19
2023-04-26T00:04:15.559Z,97856.31
2023-04-26T00:05:19.646Z,97852.06
2023-04-26T00:06:21.534Z,97846.16
2023-04-26T00:07:24.732Z,97841.13
2023-04-26T00:08:26.564Z,97844.69
2023-04-26T00:09:29.409Z,97846.47
2023-04-26T00:10:31.619Z,97841.50
2023-04-26T00:11:34.544Z,97846.72
2023-04-26T00:12:36.896Z,97846.72
2023-04-26T00:13:39.642Z,97850.13
2023-04-26T00:14:41.477Z,97840.84
2023-04-26T00:15:44.200Z,97842.63
2023-04-26T00:16:46.261Z,97841.91
2023-04-26T00:17:50.648Z,97841.09
2023-04-26T00:18:52.696Z,97842.19
2023-04-26T00:19:57.553Z,97835.34
2023-04-26T00:20:59.400Z,97838.78
2023-04-26T00:22:02.182Z,97844.91
2023-04-26T00:23:05.014Z,97840.66
2023-04-26T00:24:07.864Z,97844.22
2023-04-26T00:25:11.308Z,97847.78
2023-04-26T00:26:13.103Z,97843.53
2023-04-26T00:27:15.941Z,97844.47
2023-04-26T00:28:17.730Z,97848.03
2023-04-26T00:29:21.028Z,97850.09
2023-04-26T00:30:22.974Z,97846.78
2023-04-26T00:31:25.882Z,97845.28
2023-04-26T00:32:27.899Z,97841.97
2023-04-26T00:33:32.126Z,97846.50
2023-04-26T00:34:34.196Z,97857.94
2023-04-26T00:35:36.924Z,97855.63
2023-04-26T00:36:39.053Z,97854.81
2023-04-26T00:37:42.286Z,97854.25
2023-04-26T00:38:44.078Z,97851.78
2023-04-26T00:39:46.865Z,97848.47
2023-04-26T00:40:48.878Z,97849.44
2023-04-26T00:41:52.307Z,97846.97
2023-04-26T00:42:57.357Z,97847.22
2023-04-26T00:44:00.145Z,97847.50
2023-04-26T00:45:02.109Z,97848.56
2023-04-26T00:46:05.047Z,97852.25
2023-04-26T00:47:06.934Z,97852.50
2023-04-26T00:48:09.781Z,97852.66
2023-04-26T00:49:17.177Z,97853.72
2023-04-26T00:50:20.618Z,97853.16
2023-04-26T00:51:22.402Z,97850.81
2023-04-26T00:52:25.432Z,97849.41
2023-04-26T00:53:27.320Z,97854.06
2023-04-26T00:54:30.242Z,97856.91
2023-04-26T00:55:32.112Z,97855.38
2023-04-26T00:56:35.027Z,97855.50
2023-04-26T00:57:36.841Z,97853.19
2023-04-26T00:58:39.951Z,97854.38
2023-04-26T00:59:41.837Z,97855.56
2023-04-26T01:00:44.691Z,97855.94
2023-04-26T01:01:47.980Z,97851.13
2023-04-26T01:02:51.256Z,97861.88
2023-04-26T01:03:53.190Z,97854.38
2023-04-26T01:04:58.499Z,97860.63
2023-04-26T01:06:00.382Z,97853.91
2023-04-26T01:07:03.293Z,97848.03
2023-04-26T01:08:08.356Z,97857.72
2023-04-26T01:09:14.799Z,97858.75
2023-04-26T01:10:17.840Z,97859.84
2023-04-26T01:11:20.260Z,97857.50
2023-04-26T01:12:24.155Z,97851.03
2023-04-26T01:13:26.715Z,97858.13
2023-04-26T01:14:29.737Z,97856.59
2023-04-26T01:15:33.423Z,97849.22
2023-04-26T01:16:36.561Z,97847.00
2023-04-26T01:17:38.568Z,97848.88
2023-04-26T01:18:42.989Z,97849.13
2023-04-26T01:19:47.912Z,97845.00
2023-04-26T01:20:53.023Z,97851.50
2023-04-26T01:21:54.890Z,97852.00
2023-04-26T01:22:59.008Z,97858.84
2023-04-26T01:24:01.322Z,97859.03
2023-04-26T01:25:07.648Z,97867.06
2023-04-26T01:26:09.404Z,97868.13
2023-04-26T01:27:12.117Z,97875.34
2023-04-26T01:28:16.049Z,97877.34
2023-04-26T01:29:19.827Z,97881.91
2023-04-26T01:30:21.601Z,97883.81
2023-04-26T01:31:24.814Z,97878.03
2023-04-26T01:32:26.892Z,97885.22
2023-04-26T01:33:29.704Z,97885.34
2023-04-26T01:34:33.184Z,97885.59
2023-04-26T01:35:35.920Z,97892.78
2023-04-26T01:36:37.890Z,97888.75
2023-04-26T01:37:40.756Z,97889.13
2023-04-26T01:38:43.868Z,97881.81
2023-04-26T01:39:46.628Z,97880.41
2023-04-26T01:40:48.421Z,97879.13
2023-04-26T01:41:51.307Z,97889.69
2023-04-26T01:42:54.032Z,97886.41
2023-04-26T01:43:55.959Z,97888.28
2023-04-26T01:44:58.710Z,97878.97
2023-04-26T01:46:00.485Z,97886.06
2023-04-26T01:47:06.517Z,97879.47
2023-04-26T01:48:08.844Z,97885.69
2023-04-26T01:49:11.705Z,97886.03
2023-04-26T01:50:13.549Z,97888.16
2023-04-26T01:51:16.617Z,97886.72
2023-04-26T01:52:18.379Z,97887.75
2023-04-26T01:53:22.106Z,97892.38
2023-04-26T01:54:25.498Z,97889.16
2023-04-26T01:55:29.100Z,97900.69
2023-04-26T01:56:31.268Z,97900.94
2023-04-26T01:57:36.597Z,97892.44
2023-04-26T01:58:38.431Z,97902.09
2023-04-26T01:59:41.235Z,97896.09
2023-04-26T02:00:42.980Z,97902.91
2023-04-26T02:01:46.893Z,97902.91
2023-04-26T02:02:48.829Z,97904.66
2023-04-26T02:03:51.741Z,97907.25
2023-04-26T02:04:54.876Z,97896.19
2023-04-26T02:06:00.352Z,97904.06
2023-04-26T02:07:03.895Z,97894.78
2023-04-26T02:08:06.858Z,97902.63
2023-04-26T02:09:11.640Z,97900.88
2023-04-26T02:10:18.020Z,97899.22
2023-04-26T02:11:20.165Z,97909.56
2023-04-26T02:12:23.017Z,97907.09
2023-04-26T02:13:25.138Z,97898.72
2023-04-26T02:14:27.852Z,97904.84
2023-04-26T02:15:29.739Z,97904.25
2023-04-26T02:16:32.664Z,97910.47
2023-04-26T02:17:34.617Z,97907.16
2023-04-26T02:18:37.439Z,97901.41
2023-04-26T02:19:39.232Z,97905.03
2023-04-26T02:20:43.146Z,97905.03
2023-04-26T02:21:52.713Z,97912.09
2023-04-26T02:22:55.551Z,97897.59
2023-04-26T02:23:57.466Z,97903.50
2023-04-26T02:25:00.252Z,97900.19
2023-04-26T02:26:04.450Z,97887.50
2023-04-26T02:27:07.624Z,97899.47
2023-04-26T02:28:09.851Z,97894.66
2023-04-26T02:29:12.604Z,97897.34
2023-04-26T02:30:14.551Z,97901.09
2023-04-26T02:31:17.709Z,97896.13
2023-04-26T02:32:19.931Z,97898.13
2023-04-26T02:33:22.784Z,97896.69
2023-04-26T02:34:24.754Z,97900.31
2023-04-26T02:35:28.145Z,97904.06
2023-04-26T02:36:30.057Z,97906.16
2023-04-26T02:37:33.520Z,97904.72
2023-04-26T02:38:36.453Z,97910.91
2023-04-26T02:39:40.755Z,97914.53
2023-04-26T02:40:42.608Z,97911.47
2023-04-26T02:41:49.224Z,97901.44
2023-04-26T02:42:51.342Z,97909.41
2023-04-26T02:43:54.115Z,97904.47
2023-04-26T02:44:56.016Z,97912.31
2023-04-26T02:46:01.066Z,97907.38
2023-04-26T02:47:03.069Z,97908.38
2023-04-26T02:48:06.914Z,97918.00
2023-04-26T02:49:08.859Z,97919.78
2023-04-26T02:50:12.344Z,97913.91
2023-04-26T02:51:14.480Z,97920.09
2023-04-26T02:52:17.272Z,97918.44
2023-04-26T02:53:19.091Z,97913.38
2023-04-26T02:54:21.964Z,97914.53
2023-04-26T02:55:25.122Z,97924.22
2023-04-26T02:56:27.939Z,97918.44
2023-04-26T02:57:31.760Z,97923.00
2023-04-26T02:58:34.611Z,97922.50
2023-04-26T02:59:36.580Z,97920.94
2023-04-26T03:00:39.777Z,97923.81
2023-04-26T03:01:41.828Z,97924.88
2023-04-26T03:02:44.699Z,97925.88
2023-04-26T03:03:46.674Z,97931.28
2023-04-26T03:04:49.474Z,97924.66
2023-04-26T03:05:51.299Z,97917.13
2023-04-26T03:06:54.369Z,97929.13
2023-04-26T03:07:56.496Z,97926.72
2023-04-26T03:08:59.373Z,97929.31
2023-04-26T03:10:01.924Z,97929.50
2023-04-26T03:11:05.638Z,97925.38
2023-04-26T03:12:08.111Z,97922.09
2023-04-26T03:13:13.411Z,97926.63
2023-04-26T03:14:15.646Z,97923.13
2023-04-26T03:15:18.605Z,97931.69
2023-04-26T03:16:20.768Z,97924.75
2023-04-26T03:17:23.605Z,97931.69
2023-04-26T03:18:25.941Z,97924.69
2023-04-26T03:19:29.220Z,97927.34
2023-04-26T03:20:31.557Z,97925.81
2023-04-26T03:21:34.998Z,97928.47
2023-04-26T03:22:36.909Z,97930.34
2023-04-26T03:23:40.652Z,97926.22
2023-04-26T03:24:42.760Z,97929.69
2023-04-26T03:25:45.572Z,97931.56
2023-04-26T03:26:47.676Z,97938.50
2023-04-26T03:27:51.009Z,97927.44
2023-04-26T03:28:54.522Z,97930.94
2023-04-26T03:29:57.533Z,97928.59
2023-04-26T03:30:59.520Z,97936.41
2023-04-26T03:32:02.363Z,97935.69
2023-04-26T03:33:04.414Z,97942.59
2023-04-26T03:34:07.983Z,97930.63
2023-04-26T03:35:10.349Z,97930.81
2023-04-26T03:36:13.168Z,97947.94
2023-04-26T03:37:14.944Z,97945.38
2023-04-26T03:38:19.855Z,97939.31
2023-04-26T03:39:22.191Z,97945.47
2023-04-26T03:40:24.910Z,97950.81
2023-04-26T03:41:26.730Z,97950.22
2023-04-26T03:42:30.845Z,97947.19
2023-04-26T03:43:32.738Z,97954.31
2023-04-26T03:44:38.176Z,97954.50
2023-04-26T03:45:40.011Z,97953.03
2023-04-26T03:46:42.982Z,97952.50
2023-04-26T03:47:44.828Z,97956.75
2023-04-26T03:48:47.665Z,97952.44
2023-04-26T03:49:49.489Z,97949.75
2023-04-26T03:50:52.300Z,97958.19
2023-04-26T03:51:54.072Z,97954.59
2023-04-26T03:52:56.871Z,97957.81
2023-04-26T03:53:58.757Z,97956.88
2023-04-26T03:55:01.836Z,97954.91
2023-04-26T03:56:03.650Z,97964.22
2023-04-26T03:57:08.454Z,97963.00
2023-04-26T03:58:10.265Z,97969.50
2023-04-26T03:59:13.291Z,97961.38
2023-04-26T04:00:16.780Z,97966.84
2023-04-26T04:01:20.220Z,97973.19
2023-04-26T04:02:22.049Z,97974.31
2023-04-26T04:03:25.469Z,97970.09
2023-04-26T04:04:27.701Z,97980.59
2023-04-26T04:05:30.712Z,97987.63
2023-04-26T04:06:33.450Z,97976.69
2023-04-26T04:07:37.407Z,97981.13
2023-04-26T04:08:39.284Z,97990.13
2023-04-26T04:09:42.114Z,97982.75
2023-04-26T04:10:44.454Z,97981.50
2023-04-26T04:11:47.754Z,97985.31
2023-04-26T04:12:49.945Z,97990.91
2023-04-26T04:13:52.794Z,97989.66
2023-04-26T04:14:54.627Z,97986.63
2023-04-26T04:16:04.971Z,97990.53
2023-04-26T04:17:07.411Z,97988.56
2023-04-26T04:18:10.445Z,97988.25
2023-04-26T04:19:12.375Z,97994.94
2023-04-26T04:20:15.570Z,97993.81
2023-04-26T04:21:17.894Z,97987.69
2023-04-26T04:22:20.727Z,97996.78
2023-04-26T04:23:22.518Z,97999.03
2023-04-26T04:24:25.621Z,97991.78
2023-04-26T04:25:27.581Z,97993.84
2023-04-26T04:26:34.294Z,97993.97
2023-04-26T04:27:36.868Z,97996.84
2023-04-26T04:28:41.354Z,97995.56
2023-04-26T04:29:43.115Z,98000.63
2023-04-26T04:30:46.851Z,98004.97
2023-04-26T04:31:50.764Z,98002.28
2023-04-26T04:32:53.730Z,98004.16
2023-04-26T04:33:56.791Z,98003.44
2023-04-26T04:34:58.995Z,98006.38
2023-04-26T04:36:01.907Z,97993.88
2023-04-26T04:37:04.342Z,98001.03
2023-04-26T04:38:09.160Z,98006.41
2023-04-26T04:39:16.009Z,98010.06
2023-04-26T04:40:20.104Z,98005.91
2023-04-26T04:41:23.723Z,98016.50
2023-04-26T04:42:28.255Z,98008.94
2023-04-26T04:43:33.860Z,98017.63
2023-04-26T04:44:36.931Z,98014.34
2023-04-26T04:45:40.056Z,98014.56
2023-04-26T04:46:42.054Z,98012.91
2023-04-26T04:47:46.400Z,98019.59
2023-04-26T04:48:48.558Z,98016.09
2023-04-26T04:49:53.011Z,98022.69
2023-04-26T04:50:55.845Z,98018.13
2023-04-26T04:51:58.612Z,98017.94
2023-04-26T04:53:00.601Z,98021.72
2023-04-26T04:54:10.883Z,98035.16
2023-04-26T04:55:13.416Z,98028.69
2023-04-26T04:56:18.413Z,98028.16
2023-04-26T04:57:20.674Z,98025.94
2023-04-26T04:58:24.222Z,98019.28
2023-04-26T04:59:26.347Z,98029.78
2023-04-26T05:00:29.270Z,98031.13
2023-04-26T05:01:38.720Z,98028.16
2023-04-26T05:02:47.492Z,98023.47
2023-04-26T05:03:51.117Z,98029.03
2023-04-26T05:04:55.448Z,98025.03
2023-04-26T05:05:57.421Z,98029.66
2023-04-26T05:07:02.012Z,98032.63
2023-04-26T05:08:04.340Z,98032.03
2023-04-26T05:09:07.126Z,98031.47
2023-04-26T05:10:11.906Z,98033.38
2023-04-26T05:11:14.665Z,98031.94
2023-04-26T05:12:16.603Z,98033.63
2023-04-26T05:13:19.503Z,98037.28
2023-04-26T05:14:21.276Z,98033.75
2023-04-26T05:15:24.049Z,98033.63
2023-04-26T05:16:27.239Z,98035.38
2023-04-26T05:17:30.963Z,98033.59
2023-04-26T05:18:35.470Z,98035.81
2023-04-26T05:19:38.312Z,98042.28
2023-04-26T05:20:40.160Z,98032.13
2023-04-26T05:21:42.963Z,98034.38
2023-04-26T05:22:44.827Z,98029.63
2023-04-26T05:23:48.147Z,98039.16
2023-04-26T05:24:50.157Z,98036.38
2023-04-26T05:25:53.077Z,98032.09
2023-04-26T05:27:18.434Z,98032.38
2023-04-26T05:28:29.131Z,98043.66
2023-04-26T05:29:50.494Z,98042.94
2023-04-26T05:31:20.034Z,98041.16
2023-04-26T05:32:34.348Z,98033.59
2023-04-26T05:33:58.704Z,98040.72
2023-04-26T05:35:06.789Z,98043.50
2023-04-26T05:36:11.051Z,98044.09
2023-04-26T05:37:12.869Z,98043.19
2023-04-26T05:38:15.740Z,98044.03
2023-04-26T05:39:17.940Z,98039.00
2023-04-26T05:40:20.701Z,98037.38
2023-04-26T05:41:22.619Z,98047.25
2023-04-26T05:42:25.554Z,98038.66
2023-04-26T05:43:27.405Z,98038.66
2023-04-26T05:44:30.270Z,98034.25
2023-04-26T05:45:32.115Z,98036.34
2023-04-26T05:46:36.381Z,98045.22
2023-04-26T05:47:39.250Z,98037.56
2023-04-26T05:48:41.124Z,98042.34
2023-04-26T05:49:45.211Z,98042.16
2023-04-26T05:50:47.067Z,98041.97
2023-04-26T05:51:50.683Z,98041.84
2023-04-26T05:52:52.483Z,98049.91
2023-04-26T05:53:55.481Z,98048.25
2023-04-26T05:54:57.627Z,98043.53
2023-04-26T05:56:01.643Z,98052.59
2023-04-26T05:57:03.948Z,98050.78
2023-04-26T05:58:06.863Z,98032.72
2023-04-26T05:59:08.800Z,98050.19
2023-04-26T06:00:12.826Z,98047.44
2023-04-26T06:01:19.378Z,98060.34
2023-04-26T06:02:21.242Z,98051.13
2023-04-26T06:03:24.514Z,98056.56
2023-04-26T06:04:26.723Z,98050.03
2023-04-26T06:05:41.517Z,98052.16
2023-04-26T06:06:44.731Z,98052.53
2023-04-26T06:07:46.517Z,98048.16
2023-04-26T06:08:49.450Z,98050.44
2023-04-26T06:09:51.469Z,98063.06
2023-04-26T06:10:54.578Z,98055.63
2023-04-26T06:11:57.017Z,98057.66
2023-04-26T06:13:00.260Z,98053.78
2023-04-26T06:14:04.678Z,98058.19
2023-04-26T06:15:08.267Z,98056.00
2023-04-26T06:16:13.548Z,98054.59
2023-04-26T06:17:16.457Z,98056.75
2023-04-26T06:18:19.580Z,98054.59
2023-04-26T06:19:22.290Z,98061.88
2023-04-26T06:20:25.071Z,98060.56
2023-04-26T06:21:29.204Z,98062.34
2023-04-26T06:22:33.826Z,98060.56
2023-04-26T06:23:36.792Z,98078.19
2023-04-26T06:24:38.628Z,98068.66
2023-04-26T06:25:44.686Z,98062.31
2023-04-26T06:26:47.232Z,98067.53
2023-04-26T06:27:50.044Z,98072.97
2023-04-26T06:28:51.887Z,98068.03
2023-04-26T06:29:54.856Z,98064.50
2023-04-26T06:30:58.987Z,98062.81
2023-04-26T06:32:01.346Z,98061.59
2023-04-26T06:33:05.324Z,98059.91
2023-04-26T06:34:09.430Z,98062.91
2023-04-26T06:35:11.402Z,98051.63
2023-04-26T06:36:14.489Z,98049.81
2023-04-26T06:37:18.363Z,98063.81
2023-04-26T06:38:21.380Z,98053.56
2023-04-26T06:39:24.209Z,98051.31
2023-04-26T06:40:26.911Z,98054.75
2023-04-26T06:41:29.732Z,98054.00
2023-04-26T06:42:31.914Z,98066.22
2023-04-26T06:43:54.210Z,98053.13
2023-04-26T06:44:56.908Z,98044.75
2023-04-26T06:45:59.731Z,98048.94
2023-04-26T06:47:01.531Z,98056.56
2023-04-26T06:48:05.268Z,98049.03
2023-04-26T06:49:08.161Z,98045.28
2023-04-26T06:50:11.844Z,98055.84
2023-04-26T06:51:14.628Z,98053.56
2023-04-26T06:52:18.702Z,98060.44
2023-04-26T06:53:23.122Z,98047.28
2023-04-26T06:54:31.247Z,98057.44
2023-04-26T06:55:34.355Z,98060.78
2023-04-26T06:56:37.168Z,98044.44
2023-04-26T06:57:39.075Z,98058.50
2023-04-26T06:58:59.020Z,98055.38
2023-04-26T07:00:00.807Z,98063.22
2023-04-26T07:01:03.715Z,98048.72
2023-04-26T07:02:05.769Z,98055.78
2023-04-26T07:03:08.712Z,98051.44
2023-04-26T07:04:11.797Z,98062.94
2023-04-26T07:05:15.284Z,98063.94
2023-04-26T07:06:18.125Z,98060.03
2023-04-26T07:07:22.402Z,98062.88
2023-04-26T07:08:25.232Z,98058.94
2023-04-26T07:09:28.050Z,98062.41
2023-04-26T07:10:30.854Z,98058.38
2023-04-26T07:11:33.600Z,98062.13
2023-04-26T07:12:36.468Z,98061.34
2023-04-26T07:13:42.249Z,98063.50
2023-04-26T07:14:45.106Z,98063.88
2023-04-26T07:15:47.906Z,98065.31
2023-04-26T07:16:49.714Z,98059.84
2023-04-26T07:17:52.507Z,98071.28
2023-04-26T07:18:58.190Z,98066.50
2023-04-26T07:20:00.035Z,98067.78
2023-04-26T07:21:02.908Z,98066.16
2023-04-26T07:22:05.637Z,98064.72
2023-04-26T07:23:09.681Z,98063.94
2023-04-26T07:24:13.510Z,98073.81
2023-04-26T07:25:16.259Z,98067.31
2023-04-26T07:26:18.958Z,98072.38
2023-04-26T07:27:21.814Z,98063.16
2023-04-26T07:28:23.724Z,98072.78
2023-04-26T07:29:26.526Z,98072.13
2023-04-26T07:30:29.509Z,98073.56
2023-04-26T07:31:32.835Z,98077.97
2023-04-26T07:32:36.301Z,98077.81
2023-04-26T07:33:39.494Z,98069.97
2023-04-26T07:34:41.969Z,98068.50
2023-04-26T07:35:44.845Z,98072.13
2023-04-26T07:36:47.779Z,98064.59
2023-04-26T07:37:51.006Z,98071.91
2023-04-26T07:38:55.112Z,98076.88
2023-04-26T07:39:56.977Z,98076.22
2023-04-26T07:41:01.181Z,98080.97
2023-04-26T07:42:04.020Z,98078.47
2023-04-26T07:43:06.147Z,98081.19
2023-04-26T07:44:09.102Z,98091.06
2023-04-26T07:45:11.981Z,98093.78
2023-04-26T07:46:14.868Z,98078.09
2023-04-26T07:47:16.896Z,98080.59
2023-04-26T07:48:19.664Z,98079.69
2023-04-26T07:49:22.529Z,98079.59
2023-04-26T07:50:24.614Z,98069.84
2023-04-26T07:51:27.939Z,98084.72
2023-04-26T07:52:30.721Z,98086.16
2023-04-26T07:53:32.879Z,98088.53
2023-04-26T07:54:36.991Z,98088.34
2023-04-26T07:55:39.801Z,98080.50
2023-04-26T07:56:42.682Z,98079.53
2023-04-26T07:57:44.511Z,98088.88
2023-04-26T07:58:47.351Z,98089.94
2023-04-26T07:59:49.231Z,98085.75
2023-04-26T08:00:52.108Z,98080.44
2023-04-26T08:01:54.897Z,98068.91
2023-04-26T08:02:56.810Z,98083.53
2023-04-26T08:04:00.063Z,98083.38
2023-04-26T08:05:02.614Z,98083.72
2023-04-26T08:06:05.844Z,98086.97
2023-04-26T08:07:09.053Z,98084.03
2023-04-26T08:08:12.545Z,98087.91
2023-04-26T08:09:15.284Z,98089.97
2023-04-26T08:10:18.526Z,98097.25
2023-04-26T08:11:21.809Z,98094.16
2023-04-26T08:12:23.621Z,98090.91
2023-04-26T08:13:29.151Z,98092.72
2023-04-26T08:14:31.331Z,98095.88
2023-04-26T08:15:34.305Z,98084.50
2023-04-26T08:16:37.061Z,98093.59
2023-04-26T08:17:38.983Z,98087.19
2023-04-26T08:18:43.394Z,98094.03
2023-04-26T08:19:46.447Z,98095.06
2023-04-26T08:20:49.246Z,98086.53
2023-04-26T08:21:51.124Z,98091.59
2023-04-26T08:22:56.801Z,98088.84
2023-04-26T08:23:58.650Z,98089.97
2023-04-26T08:25:01.448Z,98096.84
2023-04-26T08:26:06.479Z,98081.44
2023-04-26T08:27:08.805Z,98087.50
2023-04-26T08:28:14.451Z,98090.38
2023-04-26T08:29:18.614Z,98093.41
2023-04-26T08:30:21.258Z,98072.19
2023-04-26T08:31:24.066Z,98092.09
2023-04-26T08:32:26.408Z,98091.78
2023-04-26T08:33:29.247Z,98105.38
2023-04-26T08:34:30.988Z,98097.25
2023-04-26T08:35:33.758Z,98103.19
2023-04-26T08:36:37.514Z,98101.84
2023-04-26T08:37:39.420Z,98108.03
2023-04-26T08:38:42.497Z,98104.75
2023-04-26T08:41:01.840Z,98104.75
2023-04-26T08:42:14.526Z,98097.41
2023-04-26T08:43:36.165Z,98094.50
2023-04-26T08:44:37.993Z,98087.16
2023-04-26T08:45:42.072Z,98106.13
2023-04-26T08:46:48.410Z,98097.91
2023-04-26T08:47:52.223Z,98094.41
2023-04-26T08:49:00.564Z,98108.88
2023-04-26T08:50:04.771Z,98097.53
2023-04-26T08:51:08.566Z,98099.41
2023-04-26T08:52:11.670Z,98103.41
2023-04-26T08:53:16.404Z,98110.50
2023-04-26T08:54:20.597Z,98104.44
2023-04-26T08:55:23.575Z,98102.59
2023-04-26T08:56:27.560Z,98113.59
2023-04-26T08:57:33.421Z,98117.00
2023-04-26T08:58:35.996Z,98106.97
2023-04-26T08:59:39.492Z,98099.25
2023-04-26T09:00:43.186Z,98091.63
2023-04-26T09:01:46.032Z,98099.75
2023-04-26T09:02:51.109Z,98104.03
2023-04-26T09:03:56.709Z,98102.44
2023-04-26T09:04:59.023Z,98095.47
2023-04-26T09:06:04.651Z,98100.94
2023-04-26T09:07:07.327Z,98098.78
2023-04-26T09:08:10.087Z,98104.69
2023-04-26T09:09:14.621Z,98098.25
2023-04-26T09:10:19.540Z,98098.28
2023-04-26T09:11:22.379Z,98097.63
2023-04-26T09:12:24.689Z,98110.75
2023-04-26T09:13:30.766Z,98097.44
2023-04-26T09:14:32.630Z,98093.13
2023-04-26T09:15:35.613Z,98109.44
2023-04-26T09:16:37.697Z,98098.75
2023-04-26T09:17:42.048Z,98101.50
2023-04-26T09:18:48.041Z,98106.44
2023-04-26T09:19:50.801Z,98099.09
2023-04-26T09:21:03.935Z,98103.09
2023-04-26T09:22:08.769Z,98103.72
2023-04-26T09:23:11.681Z,98098.78
2023-04-26T09:24:14.000Z,98096.31
2023-04-26T09:25:18.150Z,98107.47
2023-04-26T09:26:21.623Z,98107.84
2023-04-26T09:27:33.700Z,98119.63
2023-04-26T09:28:37.380Z,98115.63
2023-04-26T09:29:40.119Z,98121.91
2023-04-26T09:30:42.948Z,98131.69
2023-04-26T09:31:48.664Z,98128.78
2023-04-26T09:32:53.991Z,98129.31
2023-04-26T09:33:59.164Z,98121.53
2023-04-26T09:35:01.956Z,98132.16
2023-04-26T09:36:11.889Z,98119.03
2023-04-26T09:37:14.881Z,98126.38
2023-04-26T09:38:18.904Z,98111.00
2023-04-26T09:39:31.706Z,98127.84
2023-04-26T09:40:35.790Z,98128.38
2023-04-26T09:41:45.784Z,98120.81
2023-04-26T09:42:47.788Z,98121.56
2023-04-26T09:43:53.652Z,98135.84
2023-04-26T09:45:07.123Z,98128.81
2023-04-26T09:46:09.886Z,98130.25
2023-04-26T09:47:12.429Z,98127.56
2023-04-26T09:48:17.213Z,98125.91
2023-04-26T09:49:19.015Z,98121.03
2023-04-26T09:50:29.227Z,98116.25
2023-04-26T09:51:32.228Z,98127.72
2023-04-26T09:52:43.771Z,98128.66
2023-04-26T09:53:48.396Z,98124.31
2023-04-26T09:54:53.155Z,98119.28
2023-04-26T09:55:56.530Z,98119.75
2023-04-26T09:57:01.673Z,98129.94
2023-04-26T09:58:09.961Z,98128.13
2023-04-26T09:59:14.177Z,98120.91
2023-04-26T10:00:16.679Z,98133.22
2023-04-26T10:01:20.662Z,98134.50
2023-04-26T10:02:24.835Z,98137.28
2023-04-26T10:03:27.955Z,98139.38
2023-04-26T10:04:30.131Z,98134.06
2023-04-26T10:05:34.137Z,98129.31
2023-04-26T10:06:36.966Z,98124.09
2023-04-26T10:07:39.223Z,98135.06
2023-04-26T10:08:42.091Z,98131.19
2023-04-26T10:09:44.430Z,98124.88
2023-04-26T10:10:48.029Z,98120.91
2023-04-26T10:11:49.830Z,98118.09
2023-04-26T10:12:52.556Z,98123.66
2023-04-26T10:13:55.995Z,98121.63
2023-04-26T10:15:00.215Z,98115.72
2023-04-26T10:16:02.375Z,98117.53
2023-04-26T10:17:05.895Z,98112.72
2023-04-26T10:18:09.478Z,98110.94
2023-04-26T10:19:11.880Z,98106.06
2023-04-26T10:20:14.880Z,98109.22
2023-04-26T10:21:21.168Z,98119.09
2023-04-26T10:22:25.374Z,98119.78
2023-04-26T10:23:28.260Z,98120.09
2023-04-26T10:24:30.204Z,98129.81
2023-04-26T10:25:37.342Z,98128.72
2023-04-26T10:26:48.828Z,98121.09
2023-04-26T10:27:52.766Z,98127.69
2023-04-26T10:28:59.879Z,98132.16
2023-04-26T10:30:10.533Z,98135.03
2023-04-26T10:31:13.491Z,98131.88
2023-04-26T10:32:18.052Z,98135.75
2023-04-26T10:33:21.495Z,98136.75
2023-04-26T10:34:23.392Z,98127.47
2023-04-26T10:35:27.165Z,98140.63
2023-04-26T10:36:30.005Z,98144.06
2023-04-26T10:37:31.968Z,98143.03
2023-04-26T10:38:35.377Z,98143.81
2023-04-26T10:39:37.552Z,98138.88
2023-04-26T10:40:41.612Z,98151.94
2023-04-26T10:41:44.373Z,98148.63
2023-04-26T10:42:47.108Z,98152.94
2023-04-26T10:43:49.987Z,98145.00
2023-04-26T10:44:53.334Z,98144.59
2023-04-26T10:45:57.001Z,98149.56
2023-04-26T10:46:59.978Z,98149.91
2023-04-26T10:48:17.371Z,98141.41
2023-04-26T10:49:25.693Z,98135.19
2023-04-26T10:50:29.130Z,98137.28
2023-04-26T10:51:31.808Z,98125.13
2023-04-26T10:52:35.121Z,98131.50
2023-04-26T10:53:58.262Z,98128.84
2023-04-26T10:55:02.264Z,98132.81
2023-04-26T10:56:04.365Z,98130.06
2023-04-26T10:57:07.288Z,98129.09
2023-04-26T10:58:27.836Z,98130.75
2023-04-26T10:59:43.289Z,98136.97
2023-04-26T11:01:06.346Z,98153.34
2023-04-26T11:02:10.376Z,98160.22
2023-04-26T11:03:13.279Z,98154.34
2023-04-26T11:04:15.275Z,98155.13
2023-04-26T11:05:38.715Z,98150.94
2023-04-26T11:06:51.416Z,98159.91
2023-04-26T11:08:03.961Z,98143.47
2023-04-26T11:09:37.076Z,98145.41
2023-04-26T11:10:39.030Z,98149.63
2023-04-26T11:11:53.346Z,98147.16
2023-04-26T11:13:00.236Z,98134.56
2023-04-26T11:14:03.068Z,98132.47
2023-04-26T11:15:05.404Z,98132.78
2023-04-26T11:16:10.388Z,98137.63
2023-04-26T11:17:13.156Z,98133.06
2023-04-26T11:18:20.255Z,98134.25
2023-04-26T11:19:23.077Z,98130.84
2023-04-26T11:20:29.465Z,98124.00
2023-04-26T11:21:32.722Z,98129.28
2023-04-26T11:22:34.815Z,98134.53
2023-04-26T11:23:37.743Z,98109.81
2023-04-26T11:24:39.559Z,98128.22
2023-04-26T11:25:42.411Z,98130.78
2023-04-26T11:26:52.436Z,98133.47
2023-04-26T11:27:59.975Z,98121.72
2023-04-26T11:29:03.393Z,98119.44
2023-04-26T11:30:06.833Z,98127.72
2023-04-26T11:31:11.710Z,98122.22
2023-04-26T11:32:14.386Z,98121.06
2023-04-26T11:33:18.767Z,98125.00
2023-04-26T11:34:22.894Z,98128.75
2023-04-26T11:35:25.964Z,98135.72
2023-04-26T11:36:29.938Z,98133.59
2023-04-26T11:37:31.727Z,98140.38
2023-04-26T11:38:34.629Z,98139.63
2023-04-26T11:39:36.959Z,98137.28
2023-04-26T11:40:39.817Z,98140.88
2023-04-26T11:41:42.563Z,98142.88
2023-04-26T11:42:44.668Z,98145.16
2023-04-26T11:43:47.386Z,98154.44
2023-04-26T11:44:51.548Z,98154.50
2023-04-26T11:45:59.755Z,98150.78
2023-04-26T11:47:04.755Z,98154.53
2023-04-26T11:48:09.037Z,98161.84
2023-04-26T11:49:11.109Z,98152.09
2023-04-26T11:50:14.058Z,98154.03
2023-04-26T11:51:16.820Z,98157.94
2023-04-26T11:52:18.950Z,98151.25
2023-04-26T11:53:21.732Z,98154.09
2023-04-26T11:54:31.452Z,98149.56
2023-04-26T11:55:34.207Z,98143.22
2023-04-26T11:56:36.901Z,98147.31
2023-04-26T11:57:38.764Z,98148.81
2023-04-26T11:58:41.555Z,98141.75
2023-04-26T11:59:43.449Z,98151.59
2023-04-26T12:00:58.997Z,98148.31
2023-04-26T12:02:08.794Z,98144.84
2023-04-26T12:03:11.980Z,98149.41
2023-04-26T12:04:14.092Z,98127.75
2023-04-26T12:05:27.000Z,98140.50
2023-04-26T12:06:42.599Z,98147.16
2023-04-26T12:07:50.070Z,98150.38
2023-04-26T12:08:53.342Z,98147.97
2023-04-26T12:09:55.350Z,98155.72
2023-04-26T12:11:00.781Z,98155.78
2023-04-26T12:12:04.110Z,98149.25
2023-04-26T12:13:06.847Z,98152.72
2023-04-26T12:14:11.405Z,98166.97
2023-04-26T12:15:15.629Z,98163.69
2023-04-26T12:16:26.199Z,98158.25
2023-04-26T12:17:30.313Z,98167.28
2023-04-26T12:18:33.674Z,98167.28
2023-04-26T12:19:36.554Z,98154.66
2023-04-26T12:20:41.203Z,98158.44
2023-04-26T12:21:43.760Z,98153.19
2023-04-26T12:23:04.659Z,98149.75
2023-04-26T12:24:07.908Z,98145.69
2023-04-26T12:25:10.508Z,98144.00
2023-04-26T12:26:13.216Z,98133.78
2023-04-26T12:27:21.016Z,98131.50
2023-04-26T12:28:24.791Z,98135.59
2023-04-26T12:29:27.820Z,98147.88
2023-04-26T12:30:31.319Z,98134.03
2023-04-26T12:31:39.347Z,98134.38
2023-04-26T12:32:43.469Z,98142.75